Portada
METAR-TAF:

METAR-TAF

Aeropuertos :

Lyon, Francia

latitud: 45-43N, longitud: 004-57E, altitud: 200 m

Observación

El informe se hizo hace 38 minutos, a las 03:00 UTC
Viento 3 kt del sur-sureste
Temperatura 15°C
Humedad 72%
Presión 1016 hPa
Visibilidad 10 km o más
sin nubes por debajo de 1500 m y sin presencia de cumulonimbus.

METAR: LFLY 160300Z AUTO 15003KT CAVOK 15/10 Q1016 NOSIG

Hora: 05:38 (03:38 UTC)

Pronóstico

El informe se hizo hace 4 horas y 38 minutos, a las 23:00 UTC
Pronóstico válido del 16 a las 00 UTC al 16 a las 24 UTC
Viento 5 kt del sur
Visibilidad 10 km o más
sin nubes por debajo de 1500 m y sin presencia de cumulonimbus.
Evolucionando progresivamente
del 16 a las 11 UTC al 16 a las 14 UTC
Viento 5 kt del noreste

TAF: LFLY 152300Z 1600/1624 19005KT CAVOK BECMG 1611/1614 05005KT

Observaciones y pronósticos meteorológicos de más de 4000 aeropuertos (mensajes METAR y TAF).

Los puntos amarillos y rojos representan las estaciones disponibles.

Ponga el ratón en el punto deseado para ver el nombre de la estación.

Haga clic para ver las observaciones y los pronósticos meteorológicos.

Para cambiar el mapa : haga clic en los botones verdes con una cruz de color negro para hacer un zoom, en el botón verde con un guión para alejar o en las flechas verdes para mapas adyacentes.


METAR-TAF: